Time,TemperatureF,DewpointF,PressureIn,WindDirection,WindDirectionDegrees,WindSpeedMPH,WindSpeedGustMPH,Humidity,HourlyPrecipIn,Conditions,Clouds,dailyrainin,SoftwareType,DateUTC
2013-10-20 00:01:00,42.4,31.9,29.53,SW,225,0.0,0.0,66,0.00,,---,0.00,VWS V13.00,2013-10-20 08:01:00,
2013-10-20 00:06:00,42.6,32.1,29.53,SW,222,3.6,7.6,66,0.00,,---,0.00,VWS V13.00,2013-10-20 08:06:00,
2013-10-20 00:11:00,42.6,32.1,29.53,SW,226,0.0,7.6,66,0.00,,---,0.00,VWS V13.00,2013-10-20 08:11:00,
2013-10-20 00:16:00,42.6,32.1,29.53,SW,235,5.4,7.6,66,0.00,,---,0.00,VWS V13.00,2013-10-20 08:16:00,
2013-10-20 00:21:00,42.6,32.1,29.53,SW,226,0.0,0.0,66,0.00,,---,0.00,VWS V13.00,2013-10-20 08:21:00,
2013-10-20 00:26:00,42.6,32.1,29.53,SW,226,5.4,5.4,66,0.00,,---,0.00,VWS V13.00,2013-10-20 08:26:00,
2013-10-20 00:31:00,42.6,32.1,29.53,SW,229,6.3,6.3,66,0.00,,---,0.00,VWS V13.00,2013-10-20 08:31:00,
2013-10-20 00:36:00,42.8,32.2,29.53,West,263,8.1,8.1,66,0.00,,---,0.00,VWS V13.00,2013-10-20 08:36:00,
2013-10-20 00:41:00,42.8,32.2,29.53,WSW,250,5.8,5.8,66,0.00,,---,0.00,VWS V13.00,2013-10-20 08:41:00,
2013-10-20 00:46:00,43.0,32.8,29.53,SSW,198,4.0,7.2,67,0.00,,---,0.00,VWS V13.00,2013-10-20 08:46:00,
2013-10-20 00:51:00,43.2,33.0,29.53,SW,224,0.0,7.2,67,0.00,,---,0.00,VWS V13.00,2013-10-20 08:51:00,
2013-10-20 00:56:00,43.2,33.0,29.53,SW,235,0.0,8.1,67,0.00,,---,0.00,VWS V13.00,2013-10-20 08:56:00,
2013-10-20 01:01:00,43.2,33.3,29.53,SSW,212,8.3,11.0,68,0.00,,---,0.00,VWS V13.00,2013-10-20 09:01:00,
2013-10-20 01:06:00,43.3,33.5,29.53,SW,219,3.6,11.0,68,0.00,,---,0.00,VWS V13.00,2013-10-20 09:06:00,
2013-10-20 01:11:00,43.3,33.5,29.53,WSW,244,3.1,11.0,68,0.00,,---,0.00,VWS V13.00,2013-10-20 09:11:00,
2013-10-20 01:16:00,43.2,33.3,29.56,SW,226,8.1,11.0,68,0.00,,---,0.00,VWS V13.00,2013-10-20 09:16:00,
2013-10-20 01:21:00,43.2,33.7,29.56,SW,225,5.8,6.3,69,0.00,,---,0.00,VWS V13.00,2013-10-20 09:21:00,
2013-10-20 01:26:00,43.2,33.7,29.56,SW,233,7.6,7.6,69,0.00,,---,0.00,VWS V13.00,2013-10-20 09:26:00,
2013-10-20 01:31:00,43.3,33.9,29.56,SSW,212,3.6,8.7,69,0.00,,---,0.00,VWS V13.00,2013-10-20 09:31:00,
2013-10-20 01:36:00,43.3,33.9,29.56,SW,225,6.3,8.7,69,0.00,,---,0.00,VWS V13.00,2013-10-20 09:36:00,
2013-10-20 01:41:00,43.3,33.9,29.56,SW,227,5.4,5.4,69,0.00,,---,0.00,VWS V13.00,2013-10-20 09:41:00,
2013-10-20 01:46:00,43.3,33.9,29.56,SW,228,3.1,8.3,69,0.00,,---,0.00,VWS V13.00,2013-10-20 09:46:00,
2013-10-20 01:51:00,43.3,33.9,29.56,WSW,251,0.0,8.3,69,0.00,,---,0.00,VWS V13.00,2013-10-20 09:51:00,
2013-10-20 01:56:00,43.0,33.5,29.56,SW,229,0.0,8.3,69,0.00,,---,0.00,VWS V13.00,2013-10-20 09:56:00,
2013-10-20 02:01:00,42.8,33.3,29.56,WSW,248,0.0,0.0,69,0.00,,---,0.00,VWS V13.00,2013-10-20 10:01:00,
2013-10-20 02:06:00,42.8,33.3,29.56,WSW,248,0.0,0.0,69,0.00,,---,0.00,VWS V13.00,2013-10-20 10:06:00,
2013-10-20 02:11:00,42.8,33.3,29.56,SW,233,0.0,0.0,69,0.00,,---,0.00,VWS V13.00,2013-10-20 10:11:00,
2013-10-20 02:16:00,42.6,33.2,29.56,WSW,239,0.0,0.0,69,0.00,,---,0.00,VWS V13.00,2013-10-20 10:16:00,
2013-10-20 02:21:00,42.4,33.0,29.56,WSW,239,0.0,0.0,69,0.00,,---,0.00,VWS V13.00,2013-10-20 10:21:00,
2013-10-20 02:26:00,42.4,33.0,29.56,WSW,239,0.0,0.0,69,0.00,,---,0.00,VWS V13.00,2013-10-20 10:26:00,
2013-10-20 02:31:00,42.1,32.7,29.56,WSW,240,0.0,0.0,69,0.00,,---,0.00,VWS V13.00,2013-10-20 10:31:00,
2013-10-20 02:36:00,42.1,32.7,29.56,WSW,240,0.0,0.0,69,0.00,,---,0.00,VWS V13.00,2013-10-20 10:36:00,
2013-10-20 02:41:00,41.9,32.8,29.56,WSW,240,0.0,0.0,70,0.00,,---,0.00,VWS V13.00,2013-10-20 10:41:00,
2013-10-20 02:46:00,41.9,32.8,29.56,WSW,240,0.0,0.0,70,0.00,,---,0.00,VWS V13.00,2013-10-20 10:46:00,
2013-10-20 02:51:00,42.1,33.0,29.56,WSW,239,0.0,0.0,70,0.00,,---,0.00,VWS V13.00,2013-10-20 10:51:00,
2013-10-20 02:56:00,42.1,33.0,29.56,WSW,237,0.0,0.0,70,0.00,,---,0.00,VWS V13.00,2013-10-20 10:56:00,
2013-10-20 03:01:00,42.1,33.0,29.56,WSW,237,0.0,0.0,70,0.00,,---,0.00,VWS V13.00,2013-10-20 11:01:00,
2013-10-20 03:06:00,42.1,33.4,29.56,WSW,237,0.0,0.0,71,0.00,,---,0.00,VWS V13.00,2013-10-20 11:06:00,
2013-10-20 03:11:00,41.9,33.2,29.56,SW,236,0.0,0.0,71,0.00,,---,0.00,VWS V13.00,2013-10-20 11:11:00,
2013-10-20 03:16:00,41.9,33.2,29.56,SW,236,0.0,0.0,71,0.00,,---,0.00,VWS V13.00,2013-10-20 11:16:00,
2013-10-20 03:21:00,41.9,33.2,29.56,WSW,237,0.0,0.0,71,0.00,,---,0.00,VWS V13.00,2013-10-20 11:21:00,
2013-10-20 03:26:00,41.9,33.2,29.56,SW,219,0.0,0.0,71,0.00,,---,0.00,VWS V13.00,2013-10-20 11:26:00,
2013-10-20 03:31:00,41.9,33.5,29.59,SW,234,4.0,4.0,72,0.00,,---,0.00,VWS V13.00,2013-10-20 11:31:00,
2013-10-20 03:36:00,42.1,33.7,29.59,SW,233,0.0,4.0,72,0.00,,---,0.00,VWS V13.00,2013-10-20 11:36:00,
2013-10-20 03:41:00,42.1,33.7,29.59,SW,234,0.0,0.0,72,0.00,,---,0.00,VWS V13.00,2013-10-20 11:41:00,
2013-10-20 03:46:00,42.1,33.7,29.59,West,261,0.0,0.0,72,0.00,,---,0.00,VWS V13.00,2013-10-20 11:46:00,
2013-10-20 03:51:00,42.1,33.7,29.59,West,274,0.0,0.0,72,0.00,,---,0.00,VWS V13.00,2013-10-20 11:51:00,
2013-10-20 03:56:00,41.9,33.5,29.59,West,272,0.0,0.0,72,0.00,,---,0.00,VWS V13.00,2013-10-20 11:56:00,
2013-10-20 04:01:00,41.7,33.4,29.59,West,272,0.0,0.0,72,0.00,,---,0.00,VWS V13.00,2013-10-20 12:01:00,
2013-10-20 04:06:00,41.7,33.4,29.59,West,272,0.0,0.0,72,0.00,,---,0.00,VWS V13.00,2013-10-20 12:06:00,
2013-10-20 04:11:00,41.7,33.4,29.59,West,272,0.0,0.0,72,0.00,,---,0.00,VWS V13.00,2013-10-20 12:11:00,
2013-10-20 04:16:00,41.0,33.0,29.59,West,272,0.0,0.0,73,0.00,,---,0.00,VWS V13.00,2013-10-20 12:16:00,
2013-10-20 04:21:00,40.8,32.8,29.59,West,272,0.0,0.0,73,0.00,,---,0.00,VWS V13.00,2013-10-20 12:21:00,
2013-10-20 04:26:00,40.6,32.7,29.59,West,272,0.0,0.0,73,0.00,,---,0.00,VWS V13.00,2013-10-20 12:26:00,
2013-10-20 04:31:00,40.6,32.7,29.59,West,272,0.0,0.0,73,0.00,,---,0.00,VWS V13.00,2013-10-20 12:31:00,
2013-10-20 04:36:00,40.3,32.3,29.59,West,272,0.0,0.0,73,0.00,,---,0.00,VWS V13.00,2013-10-20 12:36:00,
2013-10-20 04:41:00,39.9,32.0,29.59,West,272,0.0,0.0,73,0.00,,---,0.00,VWS V13.00,2013-10-20 12:41:00,
2013-10-20 04:45:00,39.7,31.8,29.59,West,272,0.0,0.0,73,0.00,,---,0.00,VWS V13.00,2013-10-20 12:45:00,
2013-10-20 04:50:00,39.7,31.8,29.59,West,269,0.0,0.0,73,0.00,,---,0.00,VWS V13.00,2013-10-20 12:50:00,
2013-10-20 04:56:00,39.7,31.8,29.59,West,269,0.0,0.0,73,0.00,,---,0.00,VWS V13.00,2013-10-20 12:56:00,
2013-10-20 05:01:00,39.7,31.8,29.59,West,269,0.0,0.0,73,0.00,,---,0.00,VWS V13.00,2013-10-20 13:01:00,
2013-10-20 05:06:00,39.4,31.8,29.59,West,269,0.0,0.0,74,0.00,,---,0.00,VWS V13.00,2013-10-20 13:06:00,
2013-10-20 05:10:00,39.2,31.6,29.59,West,269,0.0,0.0,74,0.00,,---,0.00,VWS V13.00,2013-10-20 13:10:00,
2013-10-20 05:15:00,39.2,31.6,29.62,West,269,0.0,0.0,74,0.00,,---,0.00,VWS V13.00,2013-10-20 13:15:00,
2013-10-20 05:20:00,39.2,31.6,29.62,West,269,0.0,0.0,74,0.00,,---,0.00,VWS V13.00,2013-10-20 13:20:00,
2013-10-20 05:25:00,38.8,31.6,29.62,SW,224,0.0,0.0,75,0.00,,---,0.00,VWS V13.00,2013-10-20 13:25:00,
2013-10-20 05:30:00,39.0,31.8,29.62,SW,228,0.0,0.0,75,0.00,,---,0.00,VWS V13.00,2013-10-20 13:30:00,
2013-10-20 05:35:00,39.2,32.0,29.62,SW,231,0.0,5.8,75,0.00,,---,0.00,VWS V13.00,2013-10-20 13:35:00,
2013-10-20 05:40:00,39.2,32.0,29.62,SW,231,0.0,0.0,75,0.00,,---,0.00,VWS V13.00,2013-10-20 13:40:00,
2013-10-20 05:45:00,39.2,32.0,29.62,SW,226,0.0,4.0,75,0.00,,---,0.00,VWS V13.00,2013-10-20 13:45:00,
2013-10-20 05:50:00,39.2,32.0,29.62,SW,226,0.0,4.0,75,0.00,,---,0.00,VWS V13.00,2013-10-20 13:50:00,
2013-10-20 05:55:00,39.2,32.0,29.62,SW,226,0.0,4.0,75,0.00,,---,0.00,VWS V13.00,2013-10-20 13:55:00,
2013-10-20 06:00:00,39.0,32.1,29.62,SW,226,0.0,0.0,76,0.00,,---,0.00,VWS V13.00,2013-10-20 14:00:00,
2013-10-20 06:06:00,38.8,31.9,29.62,SW,226,0.0,0.0,76,0.00,,---,0.00,VWS V13.00,2013-10-20 14:06:00,
2013-10-20 06:11:00,38.8,31.9,29.62,SW,216,0.0,0.0,76,0.00,,---,0.00,VWS V13.00,2013-10-20 14:11:00,
2013-10-20 06:16:00,38.8,31.9,29.62,SW,216,0.0,0.0,76,0.00,,---,0.00,VWS V13.00,2013-10-20 14:16:00,
2013-10-20 06:21:00,38.7,31.8,29.62,SW,216,0.0,0.0,76,0.00,,---,0.00,VWS V13.00,2013-10-20 14:21:00,
2013-10-20 06:26:00,38.7,31.8,29.62,SW,216,0.0,0.0,76,0.00,,---,0.00,VWS V13.00,2013-10-20 14:26:00,
2013-10-20 06:31:00,38.7,31.8,29.62,SW,216,0.0,0.0,76,0.00,,---,0.00,VWS V13.00,2013-10-20 14:31:00,
2013-10-20 06:36:00,38.7,31.8,29.62,SW,216,0.0,0.0,76,0.00,,---,0.00,VWS V13.00,2013-10-20 14:36:00,
2013-10-20 06:41:00,38.5,31.6,29.62,SW,216,0.0,0.0,76,0.00,,---,0.00,VWS V13.00,2013-10-20 14:41:00,
2013-10-20 06:46:00,38.5,31.6,29.62,SW,216,0.0,0.0,76,0.00,,---,0.00,VWS V13.00,2013-10-20 14:46:00,
2013-10-20 06:51:00,38.3,31.4,29.62,SW,216,0.0,0.0,76,0.00,,---,0.00,VWS V13.00,2013-10-20 14:51:00,
2013-10-20 06:56:00,38.3,31.4,29.62,SW,230,0.0,0.0,76,0.00,,---,0.00,VWS V13.00,2013-10-20 14:56:00,
2013-10-20 07:01:00,38.1,31.2,29.62,SW,230,0.0,0.0,76,0.00,,---,0.00,VWS V13.00,2013-10-20 15:01:00,
2013-10-20 07:06:00,38.1,31.2,29.62,SW,230,0.0,0.0,76,0.00,,---,0.00,VWS V13.00,2013-10-20 15:06:00,
2013-10-20 07:11:00,38.1,31.2,29.62,SW,230,0.0,0.0,76,0.00,,---,0.00,VWS V13.00,2013-10-20 15:11:00,
2013-10-20 07:16:00,38.3,31.4,29.62,SW,230,0.0,0.0,76,0.00,,---,0.00,VWS V13.00,2013-10-20 15:16:00,
2013-10-20 07:21:00,38.1,31.2,29.62,SW,230,0.0,0.0,76,0.00,,---,0.00,VWS V13.00,2013-10-20 15:21:00,
2013-10-20 07:26:00,38.1,31.2,29.62,SW,230,0.0,0.0,76,0.00,,---,0.00,VWS V13.00,2013-10-20 15:26:00,
2013-10-20 07:31:00,38.1,31.2,29.62,SW,230,0.0,0.0,76,0.00,,---,0.00,VWS V13.00,2013-10-20 15:31:00,
2013-10-20 07:36:00,38.1,31.2,29.62,SW,230,0.0,0.0,76,0.00,,---,0.00,VWS V13.00,2013-10-20 15:36:00,
2013-10-20 07:41:00,38.1,31.2,29.62,SW,230,0.0,0.0,76,0.00,,---,0.00,VWS V13.00,2013-10-20 15:41:00,
2013-10-20 07:46:00,37.6,30.7,29.62,SW,230,0.0,0.0,76,0.00,,---,0.00,VWS V13.00,2013-10-20 15:46:00,
2013-10-20 07:51:00,37.6,30.7,29.65,SW,230,0.0,0.0,76,0.00,,---,0.00,VWS V13.00,2013-10-20 15:51:00,
2013-10-20 07:55:00,37.4,30.5,29.65,SW,230,0.0,0.0,76,0.00,,---,0.00,VWS V13.00,2013-10-20 15:55:00,
2013-10-20 08:00:00,37.4,30.5,29.65,SW,230,0.0,0.0,76,0.00,,---,0.00,VWS V13.00,2013-10-20 16:00:00,
2013-10-20 08:05:00,37.4,30.9,29.65,SW,230,0.0,0.0,77,0.00,,---,0.00,VWS V13.00,2013-10-20 16:05:00,
2013-10-20 08:10:00,37.0,30.5,29.65,SW,230,0.0,0.0,77,0.00,,---,0.00,VWS V13.00,2013-10-20 16:10:00,
2013-10-20 08:15:00,37.0,30.5,29.65,SW,230,0.0,0.0,77,0.00,,---,0.00,VWS V13.00,2013-10-20 16:15:00,
2013-10-20 08:20:00,37.0,30.5,29.65,SW,230,0.0,0.0,77,0.00,,---,0.00,VWS V13.00,2013-10-20 16:20:00,
2013-10-20 08:25:00,37.0,30.5,29.65,SW,230,0.0,0.0,77,0.00,,---,0.00,VWS V13.00,2013-10-20 16:25:00,
2013-10-20 08:30:00,37.0,30.5,29.65,SW,230,0.0,0.0,77,0.00,,---,0.00,VWS V13.00,2013-10-20 16:30:00,
2013-10-20 08:35:00,37.0,30.5,29.65,SW,230,0.0,0.0,77,0.00,,---,0.00,VWS V13.00,2013-10-20 16:35:00,
2013-10-20 08:36:00,37.0,30.5,29.65,SW,230,0.0,0.0,77,0.00,,---,0.00,VWS V13.00,2013-10-20 16:36:00,
2013-10-20 08:41:00,36.9,30.3,29.65,SW,230,0.0,0.0,77,0.00,,---,0.00,VWS V13.00,2013-10-20 16:41:00,
2013-10-20 08:46:00,36.9,30.3,29.65,SW,230,0.0,0.0,77,0.00,,---,0.00,VWS V13.00,2013-10-20 16:46:00,
2013-10-20 08:51:00,37.0,30.8,29.65,SW,230,0.0,0.0,78,0.00,,---,0.00,VWS V13.00,2013-10-20 16:51:00,
2013-10-20 08:56:00,37.0,30.8,29.65,SW,230,0.0,0.0,78,0.00,,---,0.00,VWS V13.00,2013-10-20 16:56:00,
2013-10-20 09:01:00,37.0,30.8,29.65,SW,230,0.0,0.0,78,0.00,,---,0.00,VWS V13.00,2013-10-20 17:01:00,
2013-10-20 09:06:00,37.0,30.8,29.65,SW,230,0.0,0.0,78,0.00,,---,0.00,VWS V13.00,2013-10-20 17:06:00,
2013-10-20 09:11:00,37.0,30.8,29.65,SW,230,0.0,0.0,78,0.00,,---,0.00,VWS V13.00,2013-10-20 17:11:00,
2013-10-20 09:16:00,37.0,30.8,29.65,SW,230,0.0,0.0,78,0.00,,---,0.00,VWS V13.00,2013-10-20 17:16:00,
2013-10-20 09:21:00,36.3,30.1,29.65,SW,230,0.0,0.0,78,0.00,,---,0.00,VWS V13.00,2013-10-20 17:21:00,
2013-10-20 09:26:00,36.3,30.1,29.65,SW,230,0.0,0.0,78,0.00,,---,0.00,VWS V13.00,2013-10-20 17:26:00,
2013-10-20 09:31:00,36.3,30.1,29.65,SW,230,0.0,0.0,78,0.00,,---,0.00,VWS V13.00,2013-10-20 17:31:00,
2013-10-20 09:36:00,36.7,30.5,29.65,SW,230,0.0,0.0,78,0.00,,---,0.00,VWS V13.00,2013-10-20 17:36:00,
2013-10-20 09:41:00,36.7,30.5,29.65,SW,230,0.0,0.0,78,0.00,,---,0.00,VWS V13.00,2013-10-20 17:41:00,
2013-10-20 09:46:00,37.2,31.3,29.65,SW,230,0.0,0.0,79,0.00,,---,0.00,VWS V13.00,2013-10-20 17:46:00,
2013-10-20 09:51:00,37.4,31.2,29.65,SW,230,0.0,0.0,78,0.00,,---,0.00,VWS V13.00,2013-10-20 17:51:00,
2013-10-20 09:56:00,37.4,31.2,29.65,SW,230,0.0,0.0,78,0.00,,---,0.00,VWS V13.00,2013-10-20 17:56:00,
2013-10-20 10:01:00,37.4,31.2,29.65,SW,230,0.0,0.0,78,0.00,,---,0.00,VWS V13.00,2013-10-20 18:01:00,
2013-10-20 10:06:00,37.8,31.8,29.65,SW,230,0.0,0.0,79,0.00,,---,0.00,VWS V13.00,2013-10-20 18:06:00,
2013-10-20 10:11:00,37.9,32.0,29.65,SW,230,0.0,0.0,79,0.00,,---,0.00,VWS V13.00,2013-10-20 18:11:00,
2013-10-20 10:16:00,37.9,32.0,29.65,SW,230,0.0,0.0,79,0.00,,---,0.00,VWS V13.00,2013-10-20 18:16:00,
2013-10-20 10:21:00,37.9,32.0,29.68,SW,230,0.0,0.0,79,0.00,,---,0.00,VWS V13.00,2013-10-20 18:21:00,
2013-10-20 10:26:00,38.7,33.0,29.68,SW,230,0.0,0.0,80,0.00,,---,0.00,VWS V13.00,2013-10-20 18:26:00,
2013-10-20 10:31:00,38.8,33.2,29.68,SW,230,0.0,0.0,80,0.00,,---,0.00,VWS V13.00,2013-10-20 18:31:00,
2013-10-20 10:36:00,39.4,33.7,29.68,SW,230,0.0,0.0,80,0.00,,---,0.00,VWS V13.00,2013-10-20 18:36:00,
2013-10-20 10:41:00,39.7,34.1,29.68,WSW,252,0.0,0.0,80,0.00,,---,0.00,VWS V13.00,2013-10-20 18:41:00,
2013-10-20 10:46:00,39.7,34.1,29.68,WSW,255,3.1,3.1,80,0.00,,---,0.00,VWS V13.00,2013-10-20 18:46:00,
2013-10-20 10:51:00,41.0,35.6,29.68,WSW,239,4.0,7.6,81,0.00,,---,0.00,VWS V13.00,2013-10-20 18:51:00,
2013-10-20 10:56:00,41.5,36.5,29.68,West,267,7.6,7.6,82,0.00,,---,0.00,VWS V13.00,2013-10-20 18:56:00,
2013-10-20 11:01:00,41.9,36.8,29.68,WSW,248,0.0,0.0,82,0.00,,---,0.00,VWS V13.00,2013-10-20 19:01:00,
2013-10-20 11:06:00,41.9,36.8,29.68,West,261,0.0,5.8,82,0.00,,---,0.00,VWS V13.00,2013-10-20 19:06:00,
2013-10-20 11:11:00,42.4,37.3,29.68,West,261,0.0,5.8,82,0.00,,---,0.00,VWS V13.00,2013-10-20 19:11:00,
2013-10-20 11:16:00,42.4,37.3,29.68,WSW,249,0.0,5.8,82,0.00,,---,0.00,VWS V13.00,2013-10-20 19:16:00,
2013-10-20 11:21:00,42.8,37.7,29.68,WSW,253,0.0,0.0,82,0.00,,---,0.00,VWS V13.00,2013-10-20 19:21:00,
2013-10-20 11:26:00,42.8,37.7,29.68,WSW,250,0.0,3.6,82,0.00,,---,0.00,VWS V13.00,2013-10-20 19:26:00,
2013-10-20 11:31:00,42.8,37.7,29.68,WSW,250,0.0,3.6,82,0.00,,---,0.00,VWS V13.00,2013-10-20 19:31:00,
2013-10-20 11:36:00,42.8,37.7,29.68,WSW,241,0.0,3.6,82,0.00,,---,0.00,VWS V13.00,2013-10-20 19:36:00,
2013-10-20 11:41:00,43.2,38.0,29.68,WSW,237,0.0,0.0,82,0.00,,---,0.00,VWS V13.00,2013-10-20 19:41:00,
2013-10-20 11:46:00,43.3,38.2,29.68,SW,235,0.0,0.0,82,0.00,,---,0.00,VWS V13.00,2013-10-20 19:46:00,
2013-10-20 11:51:00,43.3,38.2,29.68,SW,222,0.0,0.0,82,0.00,,---,0.00,VWS V13.00,2013-10-20 19:51:00,
2013-10-20 11:56:00,43.7,38.6,29.68,SW,223,0.0,0.0,82,0.00,,---,0.00,VWS V13.00,2013-10-20 19:56:00,
2013-10-20 12:01:00,43.7,38.6,29.68,SSW,210,0.0,0.0,82,0.00,,---,0.00,VWS V13.00,2013-10-20 20:01:00,
2013-10-20 12:06:00,44.2,39.4,29.68,West,260,0.0,0.0,83,0.00,,---,0.00,VWS V13.00,2013-10-20 20:06:00,
2013-10-20 12:11:00,44.4,39.6,29.68,SSE,147,0.0,0.0,83,0.00,,---,0.00,VWS V13.00,2013-10-20 20:11:00,
2013-10-20 12:16:00,44.8,39.6,29.68,SW,223,0.0,4.5,82,0.00,,---,0.00,VWS V13.00,2013-10-20 20:16:00,
2013-10-20 12:21:00,44.8,39.6,29.68,WSW,249,6.3,6.3,82,0.00,,---,0.00,VWS V13.00,2013-10-20 20:21:00,
2013-10-20 12:26:00,45.3,40.2,29.68,SW,228,5.8,6.3,82,0.00,,---,0.00,VWS V13.00,2013-10-20 20:26:00,
2013-10-20 12:31:00,45.5,40.0,29.68,SSW,213,0.0,6.3,81,0.00,,---,0.00,VWS V13.00,2013-10-20 20:31:00,
2013-10-20 12:36:00,45.5,40.0,29.68,SSW,201,7.2,7.2,81,0.00,,---,0.00,VWS V13.00,2013-10-20 20:36:00,
2013-10-20 12:41:00,45.5,40.0,29.68,SSW,209,0.0,0.0,81,0.00,,---,0.00,VWS V13.00,2013-10-20 20:41:00,
2013-10-20 12:46:00,45.7,39.2,29.68,SW,219,0.0,0.0,78,0.00,,---,0.00,VWS V13.00,2013-10-20 20:46:00,
2013-10-20 12:51:00,45.9,39.1,29.68,SW,222,0.0,6.7,77,0.00,,---,0.00,VWS V13.00,2013-10-20 20:51:00,
2013-10-20 12:56:00,45.9,38.7,29.68,WSW,247,0.0,6.7,76,0.00,,---,0.00,VWS V13.00,2013-10-20 20:56:00,
2013-10-20 13:01:00,45.9,38.7,29.71,SW,234,0.0,0.0,76,0.00,,---,0.00,VWS V13.00,2013-10-20 21:01:00,
2013-10-20 13:06:00,45.9,38.4,29.71,SW,229,0.0,0.0,75,0.00,,---,0.00,VWS V13.00,2013-10-20 21:06:00,
2013-10-20 13:11:00,45.9,38.4,29.71,SW,223,0.0,0.0,75,0.00,,---,0.00,VWS V13.00,2013-10-20 21:11:00,
2013-10-20 13:16:00,45.9,37.7,29.71,SSW,204,0.0,0.0,73,0.00,,---,0.00,VWS V13.00,2013-10-20 21:16:00,
2013-10-20 13:21:00,45.9,37.4,29.71,WSW,242,5.4,5.4,72,0.00,,---,0.00,VWS V13.00,2013-10-20 21:21:00,
2013-10-20 13:26:00,45.9,37.4,29.71,WSW,247,0.0,5.4,72,0.00,,---,0.00,VWS V13.00,2013-10-20 21:26:00,
2013-10-20 13:31:00,46.0,36.8,29.71,South,169,0.0,5.4,70,0.00,,---,0.00,VWS V13.00,2013-10-20 21:31:00,
2013-10-20 13:36:00,46.0,36.8,29.71,SW,223,0.0,8.7,70,0.00,,---,0.00,VWS V13.00,2013-10-20 21:36:00,
2013-10-20 13:41:00,46.4,36.4,29.71,SW,229,2.2,2.2,68,0.00,,---,0.00,VWS V13.00,2013-10-20 21:41:00,
2013-10-20 13:46:00,46.4,36.4,29.68,SW,225,5.4,5.4,68,0.00,,---,0.00,VWS V13.00,2013-10-20 21:46:00,
2013-10-20 13:51:00,46.4,35.3,29.68,SW,214,0.0,5.4,65,0.00,,---,0.00,VWS V13.00,2013-10-20 21:51:00,
2013-10-20 13:56:00,46.4,34.9,29.68,West,266,0.0,5.4,64,0.00,,---,0.00,VWS V13.00,2013-10-20 21:56:00,
2013-10-20 14:01:00,46.4,34.9,29.68,West,260,0.0,0.0,64,0.00,,---,0.00,VWS V13.00,2013-10-20 22:01:00,
2013-10-20 14:06:00,46.6,34.7,29.68,WSW,252,4.5,4.5,63,0.00,,---,0.00,VWS V13.00,2013-10-20 22:06:00,
2013-10-20 14:11:00,46.6,34.7,29.68,WSW,239,2.7,5.4,63,0.00,,---,0.00,VWS V13.00,2013-10-20 22:11:00,
2013-10-20 14:16:00,46.8,34.0,29.68,West,269,5.4,5.4,61,0.00,,---,0.00,VWS V13.00,2013-10-20 22:16:00,
2013-10-20 14:21:00,46.8,34.0,29.68,West,260,5.4,5.4,61,0.00,,---,0.00,VWS V13.00,2013-10-20 22:21:00,
2013-10-20 14:26:00,46.9,33.8,29.68,WSW,251,0.0,5.4,60,0.00,,---,0.00,VWS V13.00,2013-10-20 22:26:00,
2013-10-20 14:31:00,46.9,33.4,29.68,SW,226,5.8,5.8,59,0.00,,---,0.00,VWS V13.00,2013-10-20 22:31:00,
2013-10-20 14:36:00,46.9,33.4,29.68,WSW,243,0.0,5.8,59,0.00,,---,0.00,VWS V13.00,2013-10-20 22:36:00,
2013-10-20 14:41:00,46.9,33.0,29.68,West,267,0.0,5.8,58,0.00,,---,0.00,VWS V13.00,2013-10-20 22:41:00,
2013-10-20 14:46:00,47.3,33.3,29.68,WSW,256,0.0,8.3,58,0.00,,---,0.00,VWS V13.00,2013-10-20 22:46:00,
2013-10-20 14:51:00,47.5,33.5,29.68,WSW,253,5.8,8.3,58,0.00,,---,0.00,VWS V13.00,2013-10-20 22:51:00,
2013-10-20 14:56:00,47.7,33.2,29.68,SW,225,2.7,8.3,57,0.00,,---,0.00,VWS V13.00,2013-10-20 22:56:00,
2013-10-20 15:01:00,47.7,32.8,29.68,WSW,242,0.0,0.0,56,0.00,,---,0.00,VWS V13.00,2013-10-20 23:01:00,
2013-10-20 15:06:00,47.7,32.8,29.68,West,279,0.0,7.2,56,0.00,,---,0.00,VWS V13.00,2013-10-20 23:06:00,
2013-10-20 15:11:00,47.8,32.5,29.68,West,259,7.6,7.6,55,0.00,,---,0.00,VWS V13.00,2013-10-20 23:11:00,
2013-10-20 15:16:00,47.7,31.9,29.68,WSW,239,5.4,7.6,54,0.00,,---,0.00,VWS V13.00,2013-10-20 23:16:00,
2013-10-20 15:21:00,47.7,31.9,29.68,SW,235,0.0,3.1,54,0.00,,---,0.00,VWS V13.00,2013-10-20 23:21:00,
2013-10-20 15:26:00,48.0,32.2,29.68,WSW,257,5.4,7.2,54,0.00,,---,0.00,VWS V13.00,2013-10-20 23:26:00,
2013-10-20 15:31:00,48.0,32.2,29.68,WSW,252,6.3,7.2,54,0.00,,---,0.00,VWS V13.00,2013-10-20 23:31:00,
2013-10-20 15:36:00,48.0,31.7,29.68,WSW,248,7.6,8.3,53,0.00,,---,0.00,VWS V13.00,2013-10-20 23:36:00,
2013-10-20 15:41:00,47.8,31.5,29.68,West,281,0.0,0.0,53,0.00,,---,0.00,VWS V13.00,2013-10-20 23:41:00,
2013-10-20 15:46:00,47.7,31.4,29.71,WSW,253,6.3,10.1,53,0.00,,---,0.00,VWS V13.00,2013-10-20 23:46:00,
2013-10-20 15:51:00,47.5,31.2,29.71,WSW,245,6.3,10.1,53,0.00,,---,0.00,VWS V13.00,2013-10-20 23:51:00,
2013-10-20 15:56:00,47.3,31.0,29.71,WNW,301,4.9,10.1,53,0.00,,---,0.00,VWS V13.00,2013-10-20 23:56:00,
2013-10-20 16:01:00,47.3,31.5,29.71,WSW,244,4.9,4.9,54,0.00,,---,0.00,VWS V13.00,2013-10-21 00:01:00,
2013-10-20 16:06:00,47.3,31.5,29.71,WSW,244,4.5,8.1,54,0.00,,---,0.00,VWS V13.00,2013-10-21 00:06:00,
2013-10-20 16:11:00,47.3,31.5,29.71,WSW,256,5.8,8.3,54,0.00,,---,0.00,VWS V13.00,2013-10-21 00:11:00,
2013-10-20 16:16:00,47.3,31.5,29.71,WSW,241,0.0,8.3,54,0.00,,---,0.00,VWS V13.00,2013-10-21 00:16:00,
2013-10-20 16:21:00,47.3,31.5,29.71,West,261,0.0,4.0,54,0.00,,---,0.00,VWS V13.00,2013-10-21 00:21:00,
2013-10-20 16:26:00,47.3,31.5,29.71,WSW,239,7.6,9.2,54,0.00,,---,0.00,VWS V13.00,2013-10-21 00:26:00,
2013-10-20 16:31:00,47.3,31.5,29.71,SW,221,5.4,9.2,54,0.00,,---,0.00,VWS V13.00,2013-10-21 00:31:00,
2013-10-20 16:36:00,46.9,30.7,29.71,SW,229,0.0,10.5,53,0.00,,---,0.00,VWS V13.00,2013-10-21 00:36:00,
2013-10-20 16:41:00,46.8,30.5,29.71,SW,224,5.4,5.8,53,0.00,,---,0.00,VWS V13.00,2013-10-21 00:41:00,
2013-10-20 16:46:00,46.6,30.4,29.71,WSW,251,8.1,8.1,53,0.00,,---,0.00,VWS V13.00,2013-10-21 00:46:00,
2013-10-20 16:50:00,46.4,30.2,29.71,WSW,237,0.0,8.7,53,0.00,,---,0.00,VWS V13.00,2013-10-21 00:50:00,
2013-10-20 16:55:00,46.4,30.2,29.71,WSW,239,0.0,8.7,53,0.00,,---,0.00,VWS V13.00,2013-10-21 00:55:00,
2013-10-20 17:00:00,46.4,30.2,29.71,SW,227,0.0,0.0,53,0.00,,---,0.00,VWS V13.00,2013-10-21 01:00:00,
2013-10-20 17:05:00,46.4,30.7,29.71,WSW,251,3.1,7.6,54,0.00,,---,0.00,VWS V13.00,2013-10-21 01:05:00,
2013-10-20 17:11:00,46.4,30.7,29.71,SW,225,5.4,7.6,54,0.00,,---,0.00,VWS V13.00,2013-10-21 01:11:00,
2013-10-20 17:16:00,46.4,30.7,29.71,SW,236,7.6,7.6,54,0.00,,---,0.00,VWS V13.00,2013-10-21 01:16:00,
2013-10-20 17:21:00,46.4,31.1,29.71,WSW,254,0.0,8.1,55,0.00,,---,0.00,VWS V13.00,2013-10-21 01:21:00,
2013-10-20 17:25:00,46.2,31.4,29.71,SW,232,5.4,8.1,56,0.00,,---,0.00,VWS V13.00,2013-10-21 01:25:00,
2013-10-20 17:30:00,46.2,31.4,29.71,SW,230,2.2,8.1,56,0.00,,---,0.00,VWS V13.00,2013-10-21 01:30:00,
2013-10-20 17:35:00,46.2,31.8,29.71,SSE,164,0.0,8.1,57,0.00,,---,0.00,VWS V13.00,2013-10-21 01:35:00,
2013-10-20 17:40:00,46.2,31.8,29.71,SW,227,0.0,3.1,57,0.00,,---,0.00,VWS V13.00,2013-10-21 01:40:00,
2013-10-20 17:45:00,46.2,32.3,29.71,SW,230,0.0,9.6,58,0.00,,---,0.00,VWS V13.00,2013-10-21 01:45:00,
2013-10-20 17:50:00,46.0,32.1,29.71,SW,228,0.0,9.6,58,0.00,,---,0.00,VWS V13.00,2013-10-21 01:50:00,
2013-10-20 17:55:00,46.0,32.1,29.71,WSW,249,0.0,9.6,58,0.00,,---,0.00,VWS V13.00,2013-10-21 01:55:00,
2013-10-20 18:01:00,46.0,32.1,29.71,SW,223,0.0,0.0,58,0.00,,---,0.00,VWS V13.00,2013-10-21 02:01:00,
2013-10-20 18:06:00,46.0,32.5,29.71,SW,235,3.1,9.6,59,0.00,,---,0.00,VWS V13.00,2013-10-21 02:06:00,
2013-10-20 18:11:00,45.9,32.4,29.71,SSW,207,8.7,9.6,59,0.00,,---,0.00,VWS V13.00,2013-10-21 02:11:00,
2013-10-20 18:16:00,45.7,32.2,29.71,SW,225,8.1,9.6,59,0.00,,---,0.00,VWS V13.00,2013-10-21 02:16:00,
2013-10-20 18:21:00,45.5,32.0,29.71,SW,231,0.0,11.0,59,0.00,,---,0.00,VWS V13.00,2013-10-21 02:21:00,
2013-10-20 18:26:00,45.5,32.0,29.71,SW,234,6.3,11.0,59,0.00,,---,0.00,VWS V13.00,2013-10-21 02:26:00,
2013-10-20 18:31:00,45.3,31.9,29.71,SSW,212,0.0,11.0,59,0.00,,---,0.00,VWS V13.00,2013-10-21 02:31:00,
2013-10-20 18:36:00,45.1,32.1,29.71,SW,233,4.0,11.0,60,0.00,,---,0.00,VWS V13.00,2013-10-21 02:36:00,
2013-10-20 18:41:00,45.0,31.9,29.71,SSW,194,0.0,3.6,60,0.00,,---,0.00,VWS V13.00,2013-10-21 02:41:00,
2013-10-20 18:46:00,44.8,31.8,29.71,SW,223,3.1,7.2,60,0.00,,---,0.00,VWS V13.00,2013-10-21 02:46:00,
2013-10-20 18:51:00,44.8,32.2,29.71,WSW,251,4.9,10.5,61,0.00,,---,0.00,VWS V13.00,2013-10-21 02:51:00,
2013-10-20 18:56:00,44.6,32.0,29.71,SW,231,5.4,10.5,61,0.00,,---,0.00,VWS V13.00,2013-10-21 02:56:00,
2013-10-20 19:01:00,44.6,32.0,29.71,WSW,244,0.0,0.0,61,0.00,,---,0.00,VWS V13.00,2013-10-21 03:01:00,
2013-10-20 19:06:00,44.4,32.2,29.71,SW,235,0.0,6.3,62,0.00,,---,0.00,VWS V13.00,2013-10-21 03:06:00,
2013-10-20 19:11:00,44.4,32.2,29.71,SSW,207,2.7,6.3,62,0.00,,---,0.00,VWS V13.00,2013-10-21 03:11:00,
2013-10-20 19:16:00,44.4,32.2,29.71,WSW,249,5.8,10.1,62,0.00,,---,0.00,VWS V13.00,2013-10-21 03:16:00,
2013-10-20 19:21:00,44.4,32.2,29.71,SW,234,4.9,4.9,62,0.00,,---,0.00,VWS V13.00,2013-10-21 03:21:00,
2013-10-20 19:26:00,44.4,32.2,29.71,WSW,252,0.0,5.8,62,0.00,,---,0.00,VWS V13.00,2013-10-21 03:26:00,
2013-10-20 19:31:00,44.2,32.5,29.71,SW,224,4.0,6.3,63,0.00,,---,0.00,VWS V13.00,2013-10-21 03:31:00,
2013-10-20 19:36:00,44.2,32.5,29.71,SW,221,5.4,6.7,63,0.00,,---,0.00,VWS V13.00,2013-10-21 03:36:00,
2013-10-20 19:41:00,44.2,32.5,29.71,SW,230,0.0,9.6,63,0.00,,---,0.00,VWS V13.00,2013-10-21 03:41:00,
2013-10-20 19:46:00,44.4,33.0,29.71,West,267,4.9,9.6,64,0.00,,---,0.00,VWS V13.00,2013-10-21 03:46:00,
2013-10-20 19:51:00,44.4,33.0,29.71,WSW,244,7.6,9.6,64,0.00,,---,0.00,VWS V13.00,2013-10-21 03:51:00,
2013-10-20 19:56:00,44.4,33.0,29.71,West,269,7.2,9.6,64,0.00,,---,0.00,VWS V13.00,2013-10-21 03:56:00,
2013-10-20 20:01:00,44.4,33.4,29.71,SSW,207,0.0,0.0,65,0.00,,---,0.00,VWS V13.00,2013-10-21 04:01:00,
2013-10-20 20:02:00,44.4,33.4,29.71,WSW,242,2.7,8.7,65,0.00,,---,0.00,VWS V13.00,2013-10-21 04:02:00,
2013-10-20 20:07:00,44.2,32.8,29.71,SW,221,5.4,8.7,64,0.00,,---,0.00,VWS V13.00,2013-10-21 04:07:00,
2013-10-20 20:12:00,44.2,32.8,29.71,SSW,209,11.0,11.0,64,0.00,,---,0.00,VWS V13.00,2013-10-21 04:12:00,
2013-10-20 20:17:00,44.1,32.7,29.71,SW,233,8.1,11.0,64,0.00,,---,0.00,VWS V13.00,2013-10-21 04:17:00,
2013-10-20 20:22:00,43.9,32.5,29.71,SSW,195,4.9,5.8,64,0.00,,---,0.00,VWS V13.00,2013-10-21 04:22:00,
2013-10-20 20:27:00,43.7,32.3,29.71,SW,233,0.0,8.7,64,0.00,,---,0.00,VWS V13.00,2013-10-21 04:27:00,
2013-10-20 20:32:00,43.7,32.3,29.71,SW,214,0.0,8.7,64,0.00,,---,0.00,VWS V13.00,2013-10-21 04:32:00,
2013-10-20 20:37:00,43.7,32.3,29.71,SW,230,5.4,8.7,64,0.00,,---,0.00,VWS V13.00,2013-10-21 04:37:00,
2013-10-20 20:42:00,43.7,32.7,29.71,SW,219,10.1,10.1,65,0.00,,---,0.00,VWS V13.00,2013-10-21 04:42:00,
2013-10-20 20:47:00,43.5,32.5,29.74,WSW,254,0.0,12.3,65,0.00,,---,0.00,VWS V13.00,2013-10-21 04:47:00,
2013-10-20 20:52:00,43.3,32.4,29.74,SW,229,6.3,12.3,65,0.00,,---,0.00,VWS V13.00,2013-10-21 04:52:00,
2013-10-20 20:57:00,43.2,32.2,29.74,West,281,0.0,12.3,65,0.00,,---,0.00,VWS V13.00,2013-10-21 04:57:00,
2013-10-20 21:02:00,43.0,32.0,29.74,WSW,251,7.6,7.6,65,0.00,,---,0.00,VWS V13.00,2013-10-21 05:02:00,
2013-10-20 21:06:00,42.8,31.9,29.74,WSW,245,0.0,8.3,65,0.00,,---,0.00,VWS V13.00,2013-10-21 05:06:00,
2013-10-20 21:11:00,42.6,32.1,29.74,SW,226,0.0,8.7,66,0.00,,---,0.00,VWS V13.00,2013-10-21 05:11:00,
2013-10-20 21:16:00,42.4,31.9,29.74,WSW,255,0.0,8.7,66,0.00,,---,0.00,VWS V13.00,2013-10-21 05:16:00,
2013-10-20 21:21:00,42.3,32.1,29.74,West,268,0.0,0.0,67,0.00,,---,0.00,VWS V13.00,2013-10-21 05:21:00,
2013-10-20 21:26:00,42.3,32.1,29.74,SSW,212,0.0,8.3,67,0.00,,---,0.00,VWS V13.00,2013-10-21 05:26:00,
2013-10-20 21:31:00,42.1,31.9,29.74,SW,225,0.0,8.3,67,0.00,,---,0.00,VWS V13.00,2013-10-21 05:31:00,
2013-10-20 21:36:00,42.1,32.3,29.74,West,266,0.0,8.3,68,0.00,,---,0.00,VWS V13.00,2013-10-21 05:36:00,
2013-10-20 21:41:00,41.9,32.1,29.74,West,266,0.0,0.0,68,0.00,,---,0.00,VWS V13.00,2013-10-21 05:41:00,
2013-10-20 21:46:00,41.7,32.0,29.74,West,265,0.0,0.0,68,0.00,,---,0.00,VWS V13.00,2013-10-21 05:46:00,
2013-10-20 21:51:00,41.5,31.8,29.74,WSW,247,0.0,0.0,68,0.00,,---,0.00,VWS V13.00,2013-10-21 05:51:00,
2013-10-20 21:56:00,41.4,31.6,29.74,WSW,247,0.0,0.0,68,0.00,,---,0.00,VWS V13.00,2013-10-21 05:56:00,
2013-10-20 22:02:00,41.2,31.4,29.74,WSW,247,0.0,0.0,68,0.00,,---,0.00,VWS V13.00,2013-10-21 06:02:00,
2013-10-20 22:07:00,41.0,31.3,29.74,WSW,247,0.0,0.0,68,0.00,,---,0.00,VWS V13.00,2013-10-21 06:07:00,
2013-10-20 22:12:00,40.6,30.9,29.74,WSW,247,0.0,0.0,68,0.00,,---,0.00,VWS V13.00,2013-10-21 06:12:00,
2013-10-20 22:17:00,40.5,30.8,29.74,WSW,247,0.0,0.0,68,0.00,,---,0.00,VWS V13.00,2013-10-21 06:17:00,
2013-10-20 22:22:00,40.3,30.6,29.74,WSW,247,0.0,0.0,68,0.00,,---,0.00,VWS V13.00,2013-10-21 06:22:00,
2013-10-20 22:27:00,40.1,30.8,29.74,WSW,247,0.0,0.0,69,0.00,,---,0.00,VWS V13.00,2013-10-21 06:27:00,
2013-10-20 22:32:00,39.7,30.1,29.74,WSW,247,0.0,0.0,68,0.00,,---,0.00,VWS V13.00,2013-10-21 06:32:00,
2013-10-20 22:37:00,39.6,30.2,29.74,WSW,247,0.0,0.0,69,0.00,,---,0.00,VWS V13.00,2013-10-21 06:37:00,
2013-10-20 22:42:00,39.4,30.1,29.74,WSW,247,0.0,0.0,69,0.00,,---,0.00,VWS V13.00,2013-10-21 06:42:00,
2013-10-20 22:47:00,39.2,29.9,29.74,WSW,247,0.0,0.0,69,0.00,,---,0.00,VWS V13.00,2013-10-21 06:47:00,
2013-10-20 22:52:00,39.0,30.1,29.74,WSW,247,0.0,0.0,70,0.00,,---,0.00,VWS V13.00,2013-10-21 06:52:00,
2013-10-20 22:57:00,38.8,29.9,29.74,WSW,247,0.0,0.0,70,0.00,,---,0.00,VWS V13.00,2013-10-21 06:57:00,
2013-10-20 23:02:00,38.7,29.7,29.74,WSW,247,0.0,0.0,70,0.00,,---,0.00,VWS V13.00,2013-10-21 07:02:00,
2013-10-20 23:07:00,38.5,29.6,29.74,WSW,247,0.0,0.0,70,0.00,,---,0.00,VWS V13.00,2013-10-21 07:07:00,
2013-10-20 23:12:00,38.5,29.6,29.74,WSW,247,0.0,0.0,70,0.00,,---,0.00,VWS V13.00,2013-10-21 07:12:00,
2013-10-20 23:17:00,38.3,29.7,29.74,WSW,247,0.0,0.0,71,0.00,,---,0.00,VWS V13.00,2013-10-21 07:17:00,
2013-10-20 23:22:00,38.1,29.6,29.74,WSW,247,0.0,0.0,71,0.00,,---,0.00,VWS V13.00,2013-10-21 07:22:00,
2013-10-20 23:27:00,38.1,29.6,29.74,SW,231,0.0,6.3,71,0.00,,---,0.00,VWS V13.00,2013-10-21 07:27:00,
2013-10-20 23:32:00,38.1,29.6,29.77,SW,229,0.0,6.3,71,0.00,,---,0.00,VWS V13.00,2013-10-21 07:32:00,
2013-10-20 23:37:00,38.1,29.6,29.77,SW,220,0.0,6.3,71,0.00,,---,0.00,VWS V13.00,2013-10-21 07:37:00,
2013-10-20 23:42:00,38.3,30.1,29.77,SW,229,0.0,0.0,72,0.00,,---,0.00,VWS V13.00,2013-10-21 07:42:00,
2013-10-20 23:47:00,38.1,29.9,29.77,SW,229,0.0,0.0,72,0.00,,---,0.00,VWS V13.00,2013-10-21 07:47:00,
2013-10-20 23:52:00,37.9,29.7,29.77,SW,230,0.0,0.0,72,0.00,,---,0.00,VWS V13.00,2013-10-21 07:52:00,
2013-10-20 23:57:00,37.9,29.7,29.77,SW,230,0.0,0.0,72,0.00,,---,0.00,VWS V13.00,2013-10-21 07:57:00,